Accueil
METAR-TAF:

METAR-TAF

Aéroports :

Aéroport de Milaga

Tripoli, Libye

latitude: 32-54N, longitude: 13-17E, altitude: 11 m

METAR: absent

Heure: 09:12 (07:12 UTC)

Prévision

Le bulletin a été fait il y a 2 heures et 12 minutes, à 05:00 UTC
Prévision valable du 21 à 06 UTC au 22 à 06 UTC
Vent 15 kt de sud/sud-est
Visibilité: 8000 m
Nuages épars à une hauteur de 2500 ft
Nuages épars à une hauteur de 8000 ft
Evoluant progressivement
du 21 à 09 UTC au 21 à 11 UTC
Vent 15 kt de est

TAF: HLLM 210500Z 2106/2206 16015KT 8000 SCT025 SCT080 BECMG 2109/2111 09015KT

Observations et prévisions météorologiques de plus de 4000 aéroports (messages METAR et TAF).

Les stations disponibles sont représentées par des disques jaunes et rouges sur la carte.

Passer la souris dessus pour voir le nom de la station.

Cliquer dessus pour voir les observations et prévisions météorologiques.

Pour changer de carte: cliquez sur les boutons verts avec une croix noire pour zoomer, sur le bouton vert avec un tiret pour effectuer un zoom arrière, ou sur les flèches vertes pour les cartes adjacentes.


METAR-TAF: